Flight Track Log - Related Links

Times and Time Zones

All times are in EDT time to prevent confusion due to time zone crossing. See the SKW5550 flight status page for this flight to view local times or setup timezone preferences in your user account.

Time Position Orientation Groundspeed Altitude Reporting Facility
EDT Latitude Longitude Course Direction KTS MPH feet Rate Location/Type
Fri 09:49:24 AM 44.5444 -108.9839 171° South 192 221 6,400  Level Salt Lake Center
Fri 09:50:25 AM 44.5258 -108.9178 112° Southeast 242 278 8,200 1,770 Climbing Salt Lake Center
Fri 09:51:00 AM 43.9985 -108.4949 157° South  Level Estimated
Fri 09:51:26 AM 44.4619 -108.8753 155° Southeast 248 285 10,000  Level Salt Lake Center
Fri 09:52:00 AM 43.8914 -108.4819 175° South  Level FlightAware Approximate
Fri 09:52:27 AM 44.3817 -108.8294 158° South 275 316 11,800  Level Salt Lake Center
Fri 09:53:00 AM 43.8050 -108.3935 157° South  Level Estimated
Fri 09:53:29 AM 44.2922 -108.7789 158° South 308 354 13,600  Level Salt Lake Center
Fri 09:54:00 AM 43.6988 -108.3699 171° South  Level FlightAware Approximate
Fri 09:54:30 AM 44.1961 -108.7242 158° South 339 390 15,600  Level Salt Lake Center
Fri 09:55:31 AM 44.0964 -108.6647 157° South 369 425 17,500 1,525 Climbing Salt Lake Center
Fri 09:56:32 AM 43.9933 -108.6061 158° South 391 450 18,700 1,475 Climbing Salt Lake Center
Fri 09:57:33 AM 43.8672 -108.5328 157° South 406 467 20,500 1,574 Climbing Salt Lake Center
Fri 09:58:34 AM 43.7569 -108.4700 158° South 425 489 21,900 1,268 Climbing Salt Lake Center
Fri 09:59:36 AM 43.6453 -108.4069 158° South 433 498 23,100 1,024 Climbing Salt Lake Center
Fri 10:00:37 AM 43.5322 -108.3439 158° South 439 505 24,000 984 Climbing Salt Lake Center
Fri 10:01:38 AM 43.4236 -108.2628 152° Southeast 443 510 25,100 984 Climbing Salt Lake Center
Fri 10:02:39 AM 43.3272 -108.1589 142° Southeast 441 507 26,000 885 Climbing Salt Lake Center
Fri 10:03:40 AM 43.2278 -108.0544 143° Southeast 449 517 26,900 878 Climbing Salt Lake Center
Fri 10:04:42 AM 43.1281 -107.9481 142° Southeast 455 524 27,800 683 Climbing Salt Lake Center
Fri 10:05:43 AM 43.0272 -107.8428 143° Southeast 457 526 28,300 590 Climbing Salt Lake Center
Fri 10:06:44 AM 42.9164 -107.7253 142° Southeast 465 535 29,000 639 Climbing Salt Lake Center
Fri 10:07:45 AM 42.8003 -107.6036 142° Southeast 470 541 29,600 541 Climbing Salt Lake Center
Fri 10:08:46 AM 42.6997 -107.4986 142° Southeast 474 545 30,100 585 Climbing Salt Lake Center
Fri 10:09:48 AM 42.5978 -107.3944 143° Southeast 476 548 30,800 439 Climbing Salt Lake Center
Fri 10:10:49 AM 42.4778 -107.2700 143° Southeast 482 555 31,000 98 Climbing Salt Lake Center
Fri 10:11:50 AM 42.3725 -107.1642 143° Southeast 489 563 31,000  Level Salt Lake Center
Fri 10:12:45 AM 42.2672 -107.0581 143° Southeast 493 567 31,000  Level Denver Center
Fri 10:13:47 AM 42.1603 -106.9525 144° Southeast 495 570 31,000  Level Denver Center
Fri 10:14:48 AM 42.0392 -106.8311 143° Southeast 487 560 31,000  Level Denver Center
Fri 10:15:49 AM 41.9356 -106.7289 144° Southeast 483 556 31,000  Level Denver Center
Fri 10:16:51 AM 41.8331 -106.6267 143° Southeast 481 554 31,000  Level Denver Center
Fri 10:17:52 AM 41.7119 -106.5078 144° Southeast 483 556 31,000  Level Denver Center
Fri 10:18:53 AM 41.6014 -106.3989 144° Southeast 475 547 31,000  Level Denver Center
Fri 10:19:55 AM 41.5008 -106.3008 144° Southeast 471 542 31,000  Level Denver Center
Fri 10:20:56 AM 41.3989 -106.2025 144° Southeast 471 542 31,000  Level Denver Center
Fri 10:21:58 AM 41.2822 -106.0906 144° Southeast 466 536 31,000  Level Denver Center
Fri 10:22:59 AM 41.1808 -105.9917 144° Southeast 470 541 31,000  Level Denver Center
Fri 10:24:01 AM 41.0619 -105.8767 144° Southeast 474 545 31,000 -878 Level Denver Center
Fri 10:25:02 AM 40.9503 -105.7706 144° Southeast 475 547 29,200 -1,854 Descending Denver Center
Fri 10:26:04 AM 40.8456 -105.6703 144° Southeast 469 540 27,200 -1,854 Descending Denver Center
Fri 10:27:05 AM 40.7461 -105.5753 144° Southeast 447 514 25,400 -1,561 Descending Denver Center
Fri 10:28:07 AM 40.6503 -105.4869 145° Southeast 427 491 24,000 -1,463 Descending Denver Center
Fri 10:29:08 AM 40.5714 -105.3767 133° Southeast 416 479 22,400 -1,463 Descending Denver Center
Fri 10:30:10 AM 40.5094 -105.2661 126° Southeast 383 441 21,000 -1,512 Descending Denver Center
Fri 10:31:11 AM 40.4206 -105.1786 143° Southeast 373 429 19,300 -1,561 Descending Denver Center
Fri 10:32:13 AM 40.3344 -105.1047 147° Southeast 348 400 17,800 -1,452 Descending Denver Center
Fri 10:33:15 AM 40.2639 -105.0233 139° Southeast 338 389 16,300 -1,415 Descending Denver Center
Fri 10:34:16 AM 40.1928 -104.9481 141° Southeast 331 381 14,900 -1,415 Descending Denver Center
Fri 10:35:18 AM 40.1158 -104.8650 140° Southeast 334 384 13,400 -919 Descending Denver Center
Fri 10:36:20 AM 40.0472 -104.7906 140° Southeast 322 371 13,000 -293 Descending Denver Center
Fri 10:37:21 AM 39.9853 -104.7239 140° Southeast 290 334 12,800 -878 Descending Denver Center
Fri 10:38:23 AM 39.9642 -104.6289 106° East 263 303 11,200 -871 Descending Denver Center
Fri 10:39:25 AM 39.9600 -104.5406 93° East 245 282 11,000 -435 Descending Denver Center
Fri 10:40:27 AM 39.9550 -104.4567 94° East 234 269 10,300 -871 Descending Denver Center
Fri 10:41:29 AM 39.9481 -104.3683 96° East 228 262 9,200 -1,122 Descending Denver Center
Fri 10:42:30 AM 39.9244 -104.2942 113° Southeast 242 278 8,000 -585 Descending Denver Center
Fri 10:43:32 AM 39.8811 -104.3483 224° Southwest 223 257 8,000 -107 Level Denver Center
Fri 10:44:22 AM 39.8833 -104.4167 272° West 216 249 7,800 -545 Descending Denver TRACON
Fri 10:45:22 AM 39.8833 -104.4833 270° West 192 221 7,000 -650 Descending Denver TRACON
Fri 10:46:22 AM 39.8833 -104.5500 270° West 166 191 6,500 -700 Descending Denver TRACON
Fri 10:47:22 AM 39.8833 -104.6000 270° West 147 169 5,600 -900 Descending Denver TRACON

Login

Don't have an account? Register now (free) for customized features, flight alerts, and more!